sensor_id;sensor_type;location;lat;lon;timestamp;temperature;humidity
37642;DHT22;23486;51.956;5.888;2023-01-19T00:00:00;2.40;99.90
37642;DHT22;23486;51.956;5.888;2023-01-19T00:02:25;2.40;99.90
37642;DHT22;23486;51.956;5.888;2023-01-19T00:04:53;2.40;99.90
37642;DHT22;23486;51.956;5.888;2023-01-19T00:07:19;2.40;99.90
37642;DHT22;23486;51.956;5.888;2023-01-19T00:09:45;2.40;99.90
37642;DHT22;23486;51.956;5.888;2023-01-19T00:12:10;2.30;99.90
37642;DHT22;23486;51.956;5.888;2023-01-19T00:14:36;2.40;99.90
37642;DHT22;23486;51.956;5.888;2023-01-19T00:17:02;2.40;99.90
37642;DHT22;23486;51.956;5.888;2023-01-19T00:19:28;2.40;99.90
37642;DHT22;23486;51.956;5.888;2023-01-19T00:21:54;2.40;99.90
37642;DHT22;23486;51.956;5.888;2023-01-19T00:24:19;2.40;99.90
37642;DHT22;23486;51.956;5.888;2023-01-19T00:26:45;2.40;99.90
37642;DHT22;23486;51.956;5.888;2023-01-19T00:29:12;2.40;99.90
37642;DHT22;23486;51.956;5.888;2023-01-19T00:31:38;2.50;99.90
37642;DHT22;23486;51.956;5.888;2023-01-19T00:34:04;2.50;99.90
37642;DHT22;23486;51.956;5.888;2023-01-19T00:36:32;2.50;99.90
37642;DHT22;23486;51.956;5.888;2023-01-19T00:38:58;2.50;99.90
37642;DHT22;23486;51.956;5.888;2023-01-19T00:41:24;2.50;99.90
37642;DHT22;23486;51.956;5.888;2023-01-19T00:44:09;2.50;99.90
37642;DHT22;23486;51.956;5.888;2023-01-19T00:46:34;2.50;99.90
37642;DHT22;23486;51.956;5.888;2023-01-19T00:49:00;2.50;99.90
37642;DHT22;23486;51.956;5.888;2023-01-19T00:51:26;2.50;99.90
37642;DHT22;23486;51.956;5.888;2023-01-19T00:53:51;2.50;99.90
37642;DHT22;23486;51.956;5.888;2023-01-19T00:56:17;2.50;99.90
37642;DHT22;23486;51.956;5.888;2023-01-19T00:58:43;2.50;99.90
37642;DHT22;23486;51.956;5.888;2023-01-19T01:01:11;2.50;99.90
37642;DHT22;23486;51.956;5.888;2023-01-19T01:03:37;2.50;99.90
37642;DHT22;23486;51.956;5.888;2023-01-19T01:06:06;2.50;99.90
37642;DHT22;23486;51.956;5.888;2023-01-19T01:08:33;2.50;99.90
37642;DHT22;23486;51.956;5.888;2023-01-19T01:10:59;2.50;99.90
37642;DHT22;23486;51.956;5.888;2023-01-19T01:13:25;2.50;99.90
37642;DHT22;23486;51.956;5.888;2023-01-19T01:15:52;2.50;99.90
37642;DHT22;23486;51.956;5.888;2023-01-19T01:18:18;2.50;99.90
37642;DHT22;23486;51.956;5.888;2023-01-19T01:20:44;2.50;99.90
37642;DHT22;23486;51.956;5.888;2023-01-19T01:23:09;2.50;99.90
37642;DHT22;23486;51.956;5.888;2023-01-19T01:25:35;2.50;99.90
37642;DHT22;23486;51.956;5.888;2023-01-19T01:28:05;2.50;99.90
37642;DHT22;23486;51.956;5.888;2023-01-19T01:30:34;2.50;99.90
37642;DHT22;23486;51.956;5.888;2023-01-19T01:33:00;2.50;99.90
37642;DHT22;23486;51.956;5.888;2023-01-19T01:35:26;2.50;99.90
37642;DHT22;23486;51.956;5.888;2023-01-19T01:37:51;2.50;99.90
37642;DHT22;23486;51.956;5.888;2023-01-19T01:40:20;2.50;99.90
37642;DHT22;23486;51.956;5.888;2023-01-19T01:42:46;2.50;99.90
37642;DHT22;23486;51.956;5.888;2023-01-19T01:45:36;2.50;99.90
37642;DHT22;23486;51.956;5.888;2023-01-19T01:50:38;2.60;99.90
37642;DHT22;23486;51.956;5.888;2023-01-19T01:53:24;2.60;99.90
37642;DHT22;23486;51.956;5.888;2023-01-19T01:55:50;2.60;99.90
37642;DHT22;23486;51.956;5.888;2023-01-19T01:58:15;2.60;99.90
37642;DHT22;23486;51.956;5.888;2023-01-19T02:00:41;2.60;99.90
37642;DHT22;23486;51.956;5.888;2023-01-19T02:03:26;2.60;99.90
37642;DHT22;23486;51.956;5.888;2023-01-19T02:05:54;2.50;99.90
37642;DHT22;23486;51.956;5.888;2023-01-19T02:11:33;2.40;99.90
37642;DHT22;23486;51.956;5.888;2023-01-19T02:14:18;2.30;99.90
37642;DHT22;23486;51.956;5.888;2023-01-19T02:16:44;2.30;99.90
37642;DHT22;23486;51.956;5.888;2023-01-19T02:19:14;2.20;99.90
37642;DHT22;23486;51.956;5.888;2023-01-19T02:22:00;2.10;99.90
37642;DHT22;23486;51.956;5.888;2023-01-19T02:24:26;2.10;99.90
37642;DHT22;23486;51.956;5.888;2023-01-19T02:26:54;2.00;99.90
37642;DHT22;23486;51.956;5.888;2023-01-19T02:29:22;1.90;99.90
37642;DHT22;23486;51.956;5.888;2023-01-19T02:31:49;1.90;99.90
37642;DHT22;23486;51.956;5.888;2023-01-19T02:34:19;1.80;99.90
37642;DHT22;23486;51.956;5.888;2023-01-19T02:36:52;1.70;99.90
37642;DHT22;23486;51.956;5.888;2023-01-19T02:39:30;1.70;99.90
37642;DHT22;23486;51.956;5.888;2023-01-19T02:42:03;1.70;99.90
37642;DHT22;23486;51.956;5.888;2023-01-19T02:44:31;1.60;99.90
37642;DHT22;23486;51.956;5.888;2023-01-19T02:46:57;1.60;99.90
37642;DHT22;23486;51.956;5.888;2023-01-19T02:49:27;1.60;99.90
37642;DHT22;23486;51.956;5.888;2023-01-19T02:51:53;1.60;99.90
37642;DHT22;23486;51.956;5.888;2023-01-19T02:54:35;1.60;99.90
37642;DHT22;23486;51.956;5.888;2023-01-19T03:02:40;1.60;99.90
37642;DHT22;23486;51.956;5.888;2023-01-19T03:10:39;1.60;99.90
37642;DHT22;23486;51.956;5.888;2023-01-19T03:15:58;1.60;99.90
37642;DHT22;23486;51.956;5.888;2023-01-19T03:18:28;1.50;99.90
37642;DHT22;23486;51.956;5.888;2023-01-19T03:20:59;1.50;99.90
37642;DHT22;23486;51.956;5.888;2023-01-19T03:23:29;1.40;99.90
37642;DHT22;23486;51.956;5.888;2023-01-19T03:25:57;1.40;99.90
37642;DHT22;23486;51.956;5.888;2023-01-19T03:28:24;1.40;99.90
37642;DHT22;23486;51.956;5.888;2023-01-19T03:31:00;1.30;99.90
37642;DHT22;23486;51.956;5.888;2023-01-19T03:33:31;1.40;99.90
37642;DHT22;23486;51.956;5.888;2023-01-19T03:36:00;1.40;99.90
37642;DHT22;23486;51.956;5.888;2023-01-19T03:38:32;1.40;99.90
37642;DHT22;23486;51.956;5.888;2023-01-19T03:41:01;1.40;99.90
37642;DHT22;23486;51.956;5.888;2023-01-19T03:43:27;1.40;99.90
37642;DHT22;23486;51.956;5.888;2023-01-19T03:45:56;1.40;99.90
37642;DHT22;23486;51.956;5.888;2023-01-19T03:48:22;1.40;99.90
37642;DHT22;23486;51.956;5.888;2023-01-19T03:50:48;1.40;99.90
37642;DHT22;23486;51.956;5.888;2023-01-19T03:53:16;1.40;99.90
37642;DHT22;23486;51.956;5.888;2023-01-19T03:55:44;1.40;99.90
37642;DHT22;23486;51.956;5.888;2023-01-19T03:58:10;1.40;99.90
37642;DHT22;23486;51.956;5.888;2023-01-19T04:00:36;1.50;99.90
37642;DHT22;23486;51.956;5.888;2023-01-19T04:03:03;1.50;99.90
37642;DHT22;23486;51.956;5.888;2023-01-19T04:05:29;1.50;99.90
37642;DHT22;23486;51.956;5.888;2023-01-19T04:07:55;1.60;99.90
37642;DHT22;23486;51.956;5.888;2023-01-19T04:10:21;1.60;99.90
37642;DHT22;23486;51.956;5.888;2023-01-19T04:12:59;1.60;99.90
37642;DHT22;23486;51.956;5.888;2023-01-19T04:15:25;1.70;99.90
37642;DHT22;23486;51.956;5.888;2023-01-19T04:17:51;1.70;99.90
37642;DHT22;23486;51.956;5.888;2023-01-19T04:20:17;1.70;99.90
37642;DHT22;23486;51.956;5.888;2023-01-19T04:22:43;1.70;99.90
37642;DHT22;23486;51.956;5.888;2023-01-19T04:25:09;1.70;99.90
37642;DHT22;23486;51.956;5.888;2023-01-19T04:27:35;1.70;99.90
37642;DHT22;23486;51.956;5.888;2023-01-19T04:30:02;1.70;99.90
37642;DHT22;23486;51.956;5.888;2023-01-19T04:32:29;1.70;99.90
37642;DHT22;23486;51.956;5.888;2023-01-19T04:34:54;1.70;99.90
37642;DHT22;23486;51.956;5.888;2023-01-19T04:37:20;1.70;99.90
37642;DHT22;23486;51.956;5.888;2023-01-19T04:39:46;1.70;99.90
37642;DHT22;23486;51.956;5.888;2023-01-19T04:42:11;1.70;99.90
37642;DHT22;23486;51.956;5.888;2023-01-19T04:44:37;1.60;99.90
37642;DHT22;23486;51.956;5.888;2023-01-19T04:47:03;1.60;99.90
37642;DHT22;23486;51.956;5.888;2023-01-19T04:49:28;1.70;99.90
37642;DHT22;23486;51.956;5.888;2023-01-19T04:51:54;1.70;99.90
37642;DHT22;23486;51.956;5.888;2023-01-19T04:54:20;1.70;99.90
37642;DHT22;23486;51.956;5.888;2023-01-19T04:56:45;1.70;99.90
37642;DHT22;23486;51.956;5.888;2023-01-19T04:59:11;1.70;99.90
37642;DHT22;23486;51.956;5.888;2023-01-19T05:01:37;1.70;99.90
37642;DHT22;23486;51.956;5.888;2023-01-19T05:04:03;1.70;99.90
37642;DHT22;23486;51.956;5.888;2023-01-19T05:06:37;1.70;99.90
37642;DHT22;23486;51.956;5.888;2023-01-19T05:09:02;1.70;99.90
37642;DHT22;23486;51.956;5.888;2023-01-19T05:11:28;1.80;99.90
37642;DHT22;23486;51.956;5.888;2023-01-19T05:13:54;1.80;99.90
37642;DHT22;23486;51.956;5.888;2023-01-19T05:16:19;1.80;99.90
37642;DHT22;23486;51.956;5.888;2023-01-19T05:18:45;1.80;99.90
37642;DHT22;23486;51.956;5.888;2023-01-19T05:21:11;1.80;99.90
37642;DHT22;23486;51.956;5.888;2023-01-19T05:23:39;1.70;99.90
37642;DHT22;23486;51.956;5.888;2023-01-19T05:26:08;1.80;99.90
37642;DHT22;23486;51.956;5.888;2023-01-19T05:28:33;1.70;99.90
37642;DHT22;23486;51.956;5.888;2023-01-19T05:30:59;1.70;99.90
37642;DHT22;23486;51.956;5.888;2023-01-19T05:33:25;1.70;99.90
37642;DHT22;23486;51.956;5.888;2023-01-19T05:35:52;1.70;99.90
37642;DHT22;23486;51.956;5.888;2023-01-19T05:38:19;1.70;99.90
37642;DHT22;23486;51.956;5.888;2023-01-19T05:40:45;1.70;99.90
37642;DHT22;23486;51.956;5.888;2023-01-19T05:43:11;1.80;99.90
37642;DHT22;23486;51.956;5.888;2023-01-19T05:45:37;1.90;99.90
37642;DHT22;23486;51.956;5.888;2023-01-19T05:48:07;1.80;99.90
37642;DHT22;23486;51.956;5.888;2023-01-19T05:50:33;1.80;99.90
37642;DHT22;23486;51.956;5.888;2023-01-19T05:52:59;1.90;99.90
37642;DHT22;23486;51.956;5.888;2023-01-19T05:55:26;1.90;99.90
37642;DHT22;23486;51.956;5.888;2023-01-19T05:57:52;1.80;99.90
37642;DHT22;23486;51.956;5.888;2023-01-19T06:00:18;1.90;99.90
37642;DHT22;23486;51.956;5.888;2023-01-19T06:02:47;1.90;99.90
37642;DHT22;23486;51.956;5.888;2023-01-19T06:05:14;1.90;99.90
37642;DHT22;23486;51.956;5.888;2023-01-19T06:07:39;1.90;99.90
37642;DHT22;23486;51.956;5.888;2023-01-19T06:10:06;1.90;99.90
37642;DHT22;23486;51.956;5.888;2023-01-19T06:12:31;1.90;99.90
37642;DHT22;23486;51.956;5.888;2023-01-19T06:14:57;1.90;99.90
37642;DHT22;23486;51.956;5.888;2023-01-19T06:17:23;1.90;99.90
37642;DHT22;23486;51.956;5.888;2023-01-19T06:19:48;1.90;99.90
37642;DHT22;23486;51.956;5.888;2023-01-19T06:22:14;1.90;99.90
37642;DHT22;23486;51.956;5.888;2023-01-19T06:24:40;1.90;99.90
37642;DHT22;23486;51.956;5.888;2023-01-19T06:27:05;1.90;99.90
37642;DHT22;23486;51.956;5.888;2023-01-19T06:29:31;2.00;99.90
37642;DHT22;23486;51.956;5.888;2023-01-19T06:31:57;2.00;99.90
37642;DHT22;23486;51.956;5.888;2023-01-19T06:34:22;2.00;99.90
37642;DHT22;23486;51.956;5.888;2023-01-19T06:36:55;2.10;99.90
37642;DHT22;23486;51.956;5.888;2023-01-19T06:39:21;2.20;99.90
37642;DHT22;23486;51.956;5.888;2023-01-19T06:41:46;2.20;99.90
37642;DHT22;23486;51.956;5.888;2023-01-19T06:44:12;2.20;99.90
37642;DHT22;23486;51.956;5.888;2023-01-19T06:46:38;2.30;99.90
37642;DHT22;23486;51.956;5.888;2023-01-19T06:49:03;2.30;99.90
37642;DHT22;23486;51.956;5.888;2023-01-19T06:51:29;2.30;99.90
37642;DHT22;23486;51.956;5.888;2023-01-19T06:53:57;2.30;99.90
37642;DHT22;23486;51.956;5.888;2023-01-19T06:56:23;2.30;99.90
37642;DHT22;23486;51.956;5.888;2023-01-19T06:58:49;2.30;99.90
37642;DHT22;23486;51.956;5.888;2023-01-19T07:01:14;2.30;99.90
37642;DHT22;23486;51.956;5.888;2023-01-19T07:03:40;2.30;99.90
37642;DHT22;23486;51.956;5.888;2023-01-19T07:06:06;2.30;99.90
37642;DHT22;23486;51.956;5.888;2023-01-19T07:08:33;2.20;99.90
37642;DHT22;23486;51.956;5.888;2023-01-19T07:11:00;2.20;99.90
37642;DHT22;23486;51.956;5.888;2023-01-19T07:13:26;2.20;99.90
37642;DHT22;23486;51.956;5.888;2023-01-19T07:15:53;2.20;99.90
37642;DHT22;23486;51.956;5.888;2023-01-19T07:18:18;2.20;99.90
37642;DHT22;23486;51.956;5.888;2023-01-19T07:20:44;2.20;99.90
37642;DHT22;23486;51.956;5.888;2023-01-19T07:23:11;2.20;99.90
37642;DHT22;23486;51.956;5.888;2023-01-19T07:25:36;2.30;99.90
37642;DHT22;23486;51.956;5.888;2023-01-19T07:28:02;2.30;99.90
37642;DHT22;23486;51.956;5.888;2023-01-19T07:30:28;2.30;99.90
37642;DHT22;23486;51.956;5.888;2023-01-19T07:32:55;2.30;99.90
37642;DHT22;23486;51.956;5.888;2023-01-19T07:35:22;2.30;99.90
37642;DHT22;23486;51.956;5.888;2023-01-19T07:37:48;2.30;99.90
37642;DHT22;23486;51.956;5.888;2023-01-19T07:40:13;2.30;99.90
37642;DHT22;23486;51.956;5.888;2023-01-19T07:42:42;2.30;99.90
37642;DHT22;23486;51.956;5.888;2023-01-19T07:45:10;2.30;99.90
37642;DHT22;23486;51.956;5.888;2023-01-19T07:47:44;2.30;99.90
37642;DHT22;23486;51.956;5.888;2023-01-19T07:50:11;2.30;99.90
37642;DHT22;23486;51.956;5.888;2023-01-19T07:52:38;2.30;99.90
37642;DHT22;23486;51.956;5.888;2023-01-19T07:55:04;2.30;99.90
37642;DHT22;23486;51.956;5.888;2023-01-19T07:57:29;2.20;99.90
37642;DHT22;23486;51.956;5.888;2023-01-19T07:59:55;2.20;99.90
37642;DHT22;23486;51.956;5.888;2023-01-19T08:02:21;2.20;99.90
37642;DHT22;23486;51.956;5.888;2023-01-19T08:04:47;2.20;99.90
37642;DHT22;23486;51.956;5.888;2023-01-19T08:07:13;2.20;99.90
37642;DHT22;23486;51.956;5.888;2023-01-19T08:09:39;2.20;99.90
37642;DHT22;23486;51.956;5.888;2023-01-19T08:12:04;2.20;99.90
37642;DHT22;23486;51.956;5.888;2023-01-19T08:14:30;2.20;99.90
37642;DHT22;23486;51.956;5.888;2023-01-19T08:17:00;2.20;99.90
37642;DHT22;23486;51.956;5.888;2023-01-19T08:19:25;2.20;99.90
37642;DHT22;23486;51.956;5.888;2023-01-19T08:21:51;2.20;99.90
37642;DHT22;23486;51.956;5.888;2023-01-19T08:24:18;2.20;99.90
37642;DHT22;23486;51.956;5.888;2023-01-19T08:26:46;2.20;99.90
37642;DHT22;23486;51.956;5.888;2023-01-19T08:29:12;2.30;99.90
37642;DHT22;23486;51.956;5.888;2023-01-19T08:31:37;2.30;99.90
37642;DHT22;23486;51.956;5.888;2023-01-19T08:34:04;2.30;99.90
37642;DHT22;23486;51.956;5.888;2023-01-19T08:36:29;2.30;99.90
37642;DHT22;23486;51.956;5.888;2023-01-19T08:38:55;2.30;99.90
37642;DHT22;23486;51.956;5.888;2023-01-19T08:41:21;2.40;99.90
37642;DHT22;23486;51.956;5.888;2023-01-19T08:43:47;2.40;99.90
37642;DHT22;23486;51.956;5.888;2023-01-19T08:46:13;2.40;99.90
37642;DHT22;23486;51.956;5.888;2023-01-19T08:48:45;2.40;99.90
37642;DHT22;23486;51.956;5.888;2023-01-19T08:51:15;2.40;99.90
37642;DHT22;23486;51.956;5.888;2023-01-19T08:53:42;2.50;99.90
37642;DHT22;23486;51.956;5.888;2023-01-19T08:56:09;2.50;99.90
37642;DHT22;23486;51.956;5.888;2023-01-19T08:58:42;2.40;99.90
37642;DHT22;23486;51.956;5.888;2023-01-19T09:01:12;2.40;99.90
37642;DHT22;23486;51.956;5.888;2023-01-19T09:03:45;2.40;99.90
37642;DHT22;23486;51.956;5.888;2023-01-19T09:06:12;2.30;99.90
37642;DHT22;23486;51.956;5.888;2023-01-19T09:08:39;2.30;99.90
37642;DHT22;23486;51.956;5.888;2023-01-19T09:11:11;2.30;99.90
37642;DHT22;23486;51.956;5.888;2023-01-19T09:13:47;2.30;99.90
37642;DHT22;23486;51.956;5.888;2023-01-19T09:16:12;2.30;99.90
37642;DHT22;23486;51.956;5.888;2023-01-19T09:18:40;2.30;99.90
37642;DHT22;23486;51.956;5.888;2023-01-19T09:21:05;2.30;99.90
37642;DHT22;23486;51.956;5.888;2023-01-19T09:23:32;2.30;99.90
37642;DHT22;23486;51.956;5.888;2023-01-19T09:26:00;2.40;99.90
37642;DHT22;23486;51.956;5.888;2023-01-19T09:28:26;2.40;99.90
37642;DHT22;23486;51.956;5.888;2023-01-19T09:30:53;2.40;99.90
37642;DHT22;23486;51.956;5.888;2023-01-19T09:33:19;2.40;99.90
37642;DHT22;23486;51.956;5.888;2023-01-19T09:35:46;2.40;99.90
37642;DHT22;23486;51.956;5.888;2023-01-19T09:38:13;2.40;99.90
37642;DHT22;23486;51.956;5.888;2023-01-19T09:41:01;2.40;99.90
37642;DHT22;23486;51.956;5.888;2023-01-19T09:43:43;2.40;99.90
37642;DHT22;23486;51.956;5.888;2023-01-19T09:46:14;2.50;99.90
37642;DHT22;23486;51.956;5.888;2023-01-19T09:48:55;2.50;99.90
37642;DHT22;23486;51.956;5.888;2023-01-19T09:51:26;2.60;99.90
37642;DHT22;23486;51.956;5.888;2023-01-19T09:54:12;2.60;99.90
37642;DHT22;23486;51.956;5.888;2023-01-19T09:56:40;2.70;99.90
37642;DHT22;23486;51.956;5.888;2023-01-19T09:59:28;2.80;99.90
37642;DHT22;23486;51.956;5.888;2023-01-19T10:10:29;3.40;99.90
37642;DHT22;23486;51.956;5.888;2023-01-19T10:26:14;3.90;99.90
37642;DHT22;23486;51.956;5.888;2023-01-19T10:28:40;3.90;99.90
37642;DHT22;23486;51.956;5.888;2023-01-19T10:31:06;3.90;99.90
37642;DHT22;23486;51.956;5.888;2023-01-19T10:33:34;3.90;99.90
37642;DHT22;23486;51.956;5.888;2023-01-19T10:36:03;4.00;99.90
37642;DHT22;23486;51.956;5.888;2023-01-19T10:38:29;4.00;99.90
37642;DHT22;23486;51.956;5.888;2023-01-19T10:41:04;4.10;99.90
37642;DHT22;23486;51.956;5.888;2023-01-19T10:43:40;3.90;99.90
37642;DHT22;23486;51.956;5.888;2023-01-19T10:46:27;3.90;99.90
37642;DHT22;23486;51.956;5.888;2023-01-19T10:48:57;3.80;99.90
37642;DHT22;23486;51.956;5.888;2023-01-19T10:51:23;3.80;99.90
37642;DHT22;23486;51.956;5.888;2023-01-19T10:54:02;3.70;99.90
37642;DHT22;23486;51.956;5.888;2023-01-19T10:56:31;3.70;99.90
37642;DHT22;23486;51.956;5.888;2023-01-19T10:58:59;3.70;99.90
37642;DHT22;23486;51.956;5.888;2023-01-19T11:01:26;3.80;99.90
37642;DHT22;23486;51.956;5.888;2023-01-19T11:03:54;3.70;99.90
37642;DHT22;23486;51.956;5.888;2023-01-19T11:06:29;3.80;99.90
37642;DHT22;23486;51.956;5.888;2023-01-19T11:11:48;3.80;99.90
37642;DHT22;23486;51.956;5.888;2023-01-19T11:14:17;3.80;99.90
37642;DHT22;23486;51.956;5.888;2023-01-19T11:16:47;3.80;99.90
37642;DHT22;23486;51.956;5.888;2023-01-19T11:19:27;3.80;99.90
37642;DHT22;23486;51.956;5.888;2023-01-19T11:22:16;3.80;99.90
37642;DHT22;23486;51.956;5.888;2023-01-19T11:24:46;3.90;99.90
37642;DHT22;23486;51.956;5.888;2023-01-19T11:27:16;3.90;99.90
37642;DHT22;23486;51.956;5.888;2023-01-19T11:29:49;3.90;99.90
37642;DHT22;23486;51.956;5.888;2023-01-19T11:32:21;3.90;99.90
37642;DHT22;23486;51.956;5.888;2023-01-19T11:34:48;4.00;99.90
37642;DHT22;23486;51.956;5.888;2023-01-19T11:39:55;4.00;99.90
37642;DHT22;23486;51.956;5.888;2023-01-19T11:42:21;4.00;99.90
37642;DHT22;23486;51.956;5.888;2023-01-19T11:47:44;4.10;99.90
37642;DHT22;23486;51.956;5.888;2023-01-19T11:52:58;4.10;99.90
37642;DHT22;23486;51.956;5.888;2023-01-19T11:55:40;4.10;99.90
37642;DHT22;23486;51.956;5.888;2023-01-19T11:58:13;4.10;99.90
37642;DHT22;23486;51.956;5.888;2023-01-19T12:00:43;4.10;99.90
37642;DHT22;23486;51.956;5.888;2023-01-19T12:06:08;4.10;99.90
37642;DHT22;23486;51.956;5.888;2023-01-19T12:08:46;4.10;99.90
37642;DHT22;23486;51.956;5.888;2023-01-19T12:11:17;4.10;99.90
37642;DHT22;23486;51.956;5.888;2023-01-19T12:13:45;4.10;99.90
37642;DHT22;23486;51.956;5.888;2023-01-19T12:16:20;4.20;99.90
37642;DHT22;23486;51.956;5.888;2023-01-19T12:19:01;4.10;99.90
37642;DHT22;23486;51.956;5.888;2023-01-19T12:21:27;4.10;99.90
37642;DHT22;23486;51.956;5.888;2023-01-19T12:24:12;4.10;99.90
37642;DHT22;23486;51.956;5.888;2023-01-19T12:27:06;4.20;99.90
37642;DHT22;23486;51.956;5.888;2023-01-19T12:29:38;4.20;99.90
37642;DHT22;23486;51.956;5.888;2023-01-19T12:34:45;4.30;99.90
37642;DHT22;23486;51.956;5.888;2023-01-19T12:40:01;4.30;99.90
37642;DHT22;23486;51.956;5.888;2023-01-19T12:42:27;4.40;99.90
37642;DHT22;23486;51.956;5.888;2023-01-19T12:45:15;4.30;99.90
37642;DHT22;23486;51.956;5.888;2023-01-19T12:47:49;4.40;99.90
37642;DHT22;23486;51.956;5.888;2023-01-19T12:50:17;4.40;99.90
37642;DHT22;23486;51.956;5.888;2023-01-19T12:52:49;4.40;99.90
37642;DHT22;23486;51.956;5.888;2023-01-19T12:55:20;4.50;99.90
37642;DHT22;23486;51.956;5.888;2023-01-19T12:58:02;4.50;99.90
37642;DHT22;23486;51.956;5.888;2023-01-19T13:00:36;4.50;99.90
37642;DHT22;23486;51.956;5.888;2023-01-19T13:05:48;4.40;99.90
37642;DHT22;23486;51.956;5.888;2023-01-19T13:08:19;4.40;99.90
37642;DHT22;23486;51.956;5.888;2023-01-19T13:11:12;4.40;99.90
37642;DHT22;23486;51.956;5.888;2023-01-19T13:18:48;4.90;99.90
37642;DHT22;23486;51.956;5.888;2023-01-19T13:24:09;5.20;99.90
37642;DHT22;23486;51.956;5.888;2023-01-19T13:29:35;5.40;99.90
37642;DHT22;23486;51.956;5.888;2023-01-19T13:32:04;5.40;99.90
37642;DHT22;23486;51.956;5.888;2023-01-19T13:34:39;5.30;99.90
37642;DHT22;23486;51.956;5.888;2023-01-19T13:37:06;5.20;99.90
37642;DHT22;23486;51.956;5.888;2023-01-19T13:39:42;5.00;99.90
37642;DHT22;23486;51.956;5.888;2023-01-19T13:42:26;4.90;99.90
37642;DHT22;23486;51.956;5.888;2023-01-19T13:44:53;4.70;99.90
37642;DHT22;23486;51.956;5.888;2023-01-19T13:47:24;4.70;99.90
37642;DHT22;23486;51.956;5.888;2023-01-19T13:49:56;4.70;99.90
37642;DHT22;23486;51.956;5.888;2023-01-19T13:52:27;4.70;99.90
37642;DHT22;23486;51.956;5.888;2023-01-19T13:55:01;4.70;99.90
37642;DHT22;23486;51.956;5.888;2023-01-19T13:57:29;4.70;99.90
37642;DHT22;23486;51.956;5.888;2023-01-19T14:02:53;4.70;99.90
37642;DHT22;23486;51.956;5.888;2023-01-19T14:07:44;4.60;99.90
37642;DHT22;23486;51.956;5.888;2023-01-19T14:10:16;4.60;99.90
37642;DHT22;23486;51.956;5.888;2023-01-19T14:12:43;4.60;99.90
37642;DHT22;23486;51.956;5.888;2023-01-19T14:15:11;4.70;99.90
37642;DHT22;23486;51.956;5.888;2023-01-19T14:17:41;4.70;99.90
37642;DHT22;23486;51.956;5.888;2023-01-19T14:20:27;4.70;99.90
37642;DHT22;23486;51.956;5.888;2023-01-19T14:22:53;4.60;99.90
37642;DHT22;23486;51.956;5.888;2023-01-19T14:25:35;4.60;99.90
37642;DHT22;23486;51.956;5.888;2023-01-19T14:28:26;4.50;99.90
37642;DHT22;23486;51.956;5.888;2023-01-19T14:31:01;4.50;99.90
37642;DHT22;23486;51.956;5.888;2023-01-19T14:33:40;4.40;99.90
37642;DHT22;23486;51.956;5.888;2023-01-19T14:36:33;4.40;99.90
37642;DHT22;23486;51.956;5.888;2023-01-19T14:38:59;4.30;99.90
37642;DHT22;23486;51.956;5.888;2023-01-19T14:41:46;4.30;99.90
37642;DHT22;23486;51.956;5.888;2023-01-19T14:44:20;4.30;99.90
37642;DHT22;23486;51.956;5.888;2023-01-19T14:46:48;4.30;99.90
37642;DHT22;23486;51.956;5.888;2023-01-19T14:49:34;4.20;99.90
37642;DHT22;23486;51.956;5.888;2023-01-19T14:54:45;4.10;99.90
37642;DHT22;23486;51.956;5.888;2023-01-19T14:57:13;4.10;99.90
37642;DHT22;23486;51.956;5.888;2023-01-19T14:59:39;4.00;99.90
37642;DHT22;23486;51.956;5.888;2023-01-19T15:02:05;3.90;99.90
37642;DHT22;23486;51.956;5.888;2023-01-19T15:04:30;3.80;99.90
37642;DHT22;23486;51.956;5.888;2023-01-19T15:06:56;3.80;99.90
37642;DHT22;23486;51.956;5.888;2023-01-19T15:09:25;3.80;99.90
37642;DHT22;23486;51.956;5.888;2023-01-19T15:11:51;3.70;99.90
37642;DHT22;23486;51.956;5.888;2023-01-19T15:14:18;3.70;99.90
37642;DHT22;23486;51.956;5.888;2023-01-19T15:16:44;3.70;99.90
37642;DHT22;23486;51.956;5.888;2023-01-19T15:19:15;3.70;99.90
37642;DHT22;23486;51.956;5.888;2023-01-19T15:21:44;3.70;99.90
37642;DHT22;23486;51.956;5.888;2023-01-19T15:24:12;3.60;99.90
37642;DHT22;23486;51.956;5.888;2023-01-19T15:26:40;3.60;99.90
37642;DHT22;23486;51.956;5.888;2023-01-19T15:29:24;3.60;99.90
37642;DHT22;23486;51.956;5.888;2023-01-19T15:31:50;3.50;99.90
37642;DHT22;23486;51.956;5.888;2023-01-19T15:34:16;3.50;99.90
37642;DHT22;23486;51.956;5.888;2023-01-19T15:36:45;3.50;99.90
37642;DHT22;23486;51.956;5.888;2023-01-19T15:39:11;3.50;99.90
37642;DHT22;23486;51.956;5.888;2023-01-19T15:41:37;3.40;99.90
37642;DHT22;23486;51.956;5.888;2023-01-19T15:44:04;3.40;99.90
37642;DHT22;23486;51.956;5.888;2023-01-19T15:46:31;3.40;99.90
37642;DHT22;23486;51.956;5.888;2023-01-19T15:48:56;3.30;99.90
37642;DHT22;23486;51.956;5.888;2023-01-19T15:51:24;3.40;99.90
37642;DHT22;23486;51.956;5.888;2023-01-19T15:53:50;3.40;99.90
37642;DHT22;23486;51.956;5.888;2023-01-19T15:56:22;3.30;99.90
37642;DHT22;23486;51.956;5.888;2023-01-19T15:58:49;3.40;99.90
37642;DHT22;23486;51.956;5.888;2023-01-19T16:01:20;3.40;99.90
37642;DHT22;23486;51.956;5.888;2023-01-19T16:03:46;3.30;99.90
37642;DHT22;23486;51.956;5.888;2023-01-19T16:06:12;3.30;99.90
37642;DHT22;23486;51.956;5.888;2023-01-19T16:08:38;3.30;99.90
37642;DHT22;23486;51.956;5.888;2023-01-19T16:11:10;3.20;99.90
37642;DHT22;23486;51.956;5.888;2023-01-19T16:13:36;3.20;99.90
37642;DHT22;23486;51.956;5.888;2023-01-19T16:16:07;3.10;99.90
37642;DHT22;23486;51.956;5.888;2023-01-19T16:18:33;3.10;99.90
37642;DHT22;23486;51.956;5.888;2023-01-19T16:21:00;3.10;99.90
37642;DHT22;23486;51.956;5.888;2023-01-19T16:23:26;3.00;99.90
37642;DHT22;23486;51.956;5.888;2023-01-19T16:26:00;2.90;99.90
37642;DHT22;23486;51.956;5.888;2023-01-19T16:28:29;2.90;99.90
37642;DHT22;23486;51.956;5.888;2023-01-19T16:30:55;2.90;99.90
37642;DHT22;23486;51.956;5.888;2023-01-19T16:33:21;2.80;99.90
37642;DHT22;23486;51.956;5.888;2023-01-19T16:35:47;2.70;99.90
37642;DHT22;23486;51.956;5.888;2023-01-19T16:38:12;2.70;99.90
37642;DHT22;23486;51.956;5.888;2023-01-19T16:40:45;2.60;99.90
37642;DHT22;23486;51.956;5.888;2023-01-19T16:43:11;2.60;99.90
37642;DHT22;23486;51.956;5.888;2023-01-19T16:45:56;2.60;99.90
37642;DHT22;23486;51.956;5.888;2023-01-19T16:48:22;2.50;99.90
37642;DHT22;23486;51.956;5.888;2023-01-19T16:50:58;2.50;99.90
37642;DHT22;23486;51.956;5.888;2023-01-19T16:53:25;2.40;99.90
37642;DHT22;23486;51.956;5.888;2023-01-19T16:55:50;2.40;99.90
37642;DHT22;23486;51.956;5.888;2023-01-19T16:58:17;2.30;99.90
37642;DHT22;23486;51.956;5.888;2023-01-19T17:00:43;2.30;99.90
37642;DHT22;23486;51.956;5.888;2023-01-19T17:03:09;2.30;99.90
37642;DHT22;23486;51.956;5.888;2023-01-19T17:05:34;2.30;99.90
37642;DHT22;23486;51.956;5.888;2023-01-19T17:08:00;2.20;99.90
37642;DHT22;23486;51.956;5.888;2023-01-19T17:10:25;2.20;99.90
37642;DHT22;23486;51.956;5.888;2023-01-19T17:12:51;2.20;99.90
37642;DHT22;23486;51.956;5.888;2023-01-19T17:15:17;2.20;99.90
37642;DHT22;23486;51.956;5.888;2023-01-19T17:17:42;2.20;99.90